sensor_id;sensor_type;location;lat;lon;timestamp;temperature;humidity
37378;DHT22;23248;48.120;14.854;2022-12-20T00:02:07;-1.10;99.90
37378;DHT22;23248;48.120;14.854;2022-12-20T00:04:32;-1.10;99.90
37378;DHT22;23248;48.120;14.854;2022-12-20T00:06:58;-1.10;99.90
37378;DHT22;23248;48.120;14.854;2022-12-20T00:09:24;-1.10;99.90
37378;DHT22;23248;48.120;14.854;2022-12-20T00:11:49;-1.10;99.90
37378;DHT22;23248;48.120;14.854;2022-12-20T00:14:15;-1.10;99.90
37378;DHT22;23248;48.120;14.854;2022-12-20T00:16:41;-1.10;99.90
37378;DHT22;23248;48.120;14.854;2022-12-20T00:19:08;-1.10;99.90
37378;DHT22;23248;48.120;14.854;2022-12-20T00:21:34;-1.20;99.90
37378;DHT22;23248;48.120;14.854;2022-12-20T00:24:00;-1.20;99.90
37378;DHT22;23248;48.120;14.854;2022-12-20T00:26:27;-1.20;99.90
37378;DHT22;23248;48.120;14.854;2022-12-20T00:28:53;-1.20;99.90
37378;DHT22;23248;48.120;14.854;2022-12-20T00:31:19;-1.20;99.90
37378;DHT22;23248;48.120;14.854;2022-12-20T00:33:46;-1.20;99.90
37378;DHT22;23248;48.120;14.854;2022-12-20T00:36:12;-1.20;99.90
37378;DHT22;23248;48.120;14.854;2022-12-20T00:38:37;-1.20;99.90
37378;DHT22;23248;48.120;14.854;2022-12-20T00:41:07;-1.20;99.90
37378;DHT22;23248;48.120;14.854;2022-12-20T00:43:33;-1.20;99.90
37378;DHT22;23248;48.120;14.854;2022-12-20T00:45:59;-1.20;99.90
37378;DHT22;23248;48.120;14.854;2022-12-20T00:48:25;-1.20;99.90
37378;DHT22;23248;48.120;14.854;2022-12-20T00:50:51;-1.20;99.90
37378;DHT22;23248;48.120;14.854;2022-12-20T00:53:17;-1.20;99.90
37378;DHT22;23248;48.120;14.854;2022-12-20T00:55:43;-1.20;99.90
37378;DHT22;23248;48.120;14.854;2022-12-20T00:58:10;-1.20;99.90
37378;DHT22;23248;48.120;14.854;2022-12-20T01:00:36;-1.20;99.90
37378;DHT22;23248;48.120;14.854;2022-12-20T01:03:02;-1.20;99.90
37378;DHT22;23248;48.120;14.854;2022-12-20T01:05:27;-1.20;99.90
37378;DHT22;23248;48.120;14.854;2022-12-20T01:07:53;-1.20;99.90
37378;DHT22;23248;48.120;14.854;2022-12-20T01:10:19;-1.20;99.90
37378;DHT22;23248;48.120;14.854;2022-12-20T01:12:44;-1.20;99.90
37378;DHT22;23248;48.120;14.854;2022-12-20T01:15:10;-1.20;99.90
37378;DHT22;23248;48.120;14.854;2022-12-20T01:17:36;-1.20;99.90
37378;DHT22;23248;48.120;14.854;2022-12-20T01:20:02;-1.20;99.90
37378;DHT22;23248;48.120;14.854;2022-12-20T01:22:27;-1.20;99.90
37378;DHT22;23248;48.120;14.854;2022-12-20T01:24:53;-1.20;99.90
37378;DHT22;23248;48.120;14.854;2022-12-20T01:27:19;-1.20;99.90
37378;DHT22;23248;48.120;14.854;2022-12-20T01:29:44;-1.20;99.90
37378;DHT22;23248;48.120;14.854;2022-12-20T01:32:10;-1.20;99.90
37378;DHT22;23248;48.120;14.854;2022-12-20T01:34:35;-1.10;99.90
37378;DHT22;23248;48.120;14.854;2022-12-20T01:37:01;-1.20;99.90
37378;DHT22;23248;48.120;14.854;2022-12-20T01:39:26;-1.10;99.90
37378;DHT22;23248;48.120;14.854;2022-12-20T01:41:52;-1.10;99.90
37378;DHT22;23248;48.120;14.854;2022-12-20T01:46:44;-1.10;99.90
37378;DHT22;23248;48.120;14.854;2022-12-20T01:49:17;-1.20;99.90
37378;DHT22;23248;48.120;14.854;2022-12-20T01:51:49;-1.20;99.90
37378;DHT22;23248;48.120;14.854;2022-12-20T01:54:18;-1.20;99.90
37378;DHT22;23248;48.120;14.854;2022-12-20T01:56:48;-1.10;99.90
37378;DHT22;23248;48.120;14.854;2022-12-20T01:59:15;-1.10;99.90
37378;DHT22;23248;48.120;14.854;2022-12-20T02:01:43;-1.00;99.90
37378;DHT22;23248;48.120;14.854;2022-12-20T02:04:08;-1.10;99.90
37378;DHT22;23248;48.120;14.854;2022-12-20T02:06:34;-1.10;99.90
37378;DHT22;23248;48.120;14.854;2022-12-20T02:09:00;-1.10;99.90
37378;DHT22;23248;48.120;14.854;2022-12-20T02:16:43;-1.10;99.90
37378;DHT22;23248;48.120;14.854;2022-12-20T02:19:14;-1.10;99.90
37378;DHT22;23248;48.120;14.854;2022-12-20T02:22:02;-1.00;99.90
37378;DHT22;23248;48.120;14.854;2022-12-20T02:32:30;-1.10;99.90
37378;DHT22;23248;48.120;14.854;2022-12-20T02:34:58;-1.20;99.90
37378;DHT22;23248;48.120;14.854;2022-12-20T02:37:23;-1.20;99.90
37378;DHT22;23248;48.120;14.854;2022-12-20T02:39:49;-1.20;99.90
37378;DHT22;23248;48.120;14.854;2022-12-20T02:42:16;-1.20;99.90
37378;DHT22;23248;48.120;14.854;2022-12-20T02:44:45;-1.10;99.90
37378;DHT22;23248;48.120;14.854;2022-12-20T02:47:32;-1.20;99.90
37378;DHT22;23248;48.120;14.854;2022-12-20T02:49:59;-1.20;99.90
37378;DHT22;23248;48.120;14.854;2022-12-20T02:52:25;-1.10;99.90
37378;DHT22;23248;48.120;14.854;2022-12-20T02:54:54;-1.10;99.90
37378;DHT22;23248;48.120;14.854;2022-12-20T03:00:05;-1.10;99.90
37378;DHT22;23248;48.120;14.854;2022-12-20T03:02:32;-1.10;99.90
37378;DHT22;23248;48.120;14.854;2022-12-20T03:05:19;-1.20;99.90
37378;DHT22;23248;48.120;14.854;2022-12-20T03:07:45;-1.20;99.90
37378;DHT22;23248;48.120;14.854;2022-12-20T03:10:11;-1.20;99.90
37378;DHT22;23248;48.120;14.854;2022-12-20T03:12:36;-1.10;99.90
37378;DHT22;23248;48.120;14.854;2022-12-20T03:15:02;-1.10;99.90
37378;DHT22;23248;48.120;14.854;2022-12-20T03:17:28;-1.10;99.90
37378;DHT22;23248;48.120;14.854;2022-12-20T03:19:53;-1.10;99.90
37378;DHT22;23248;48.120;14.854;2022-12-20T03:22:19;-1.10;99.90
37378;DHT22;23248;48.120;14.854;2022-12-20T03:24:44;-1.00;99.90
37378;DHT22;23248;48.120;14.854;2022-12-20T03:27:10;-1.10;99.90
37378;DHT22;23248;48.120;14.854;2022-12-20T03:29:35;-1.10;99.90
37378;DHT22;23248;48.120;14.854;2022-12-20T03:32:01;-1.10;99.90
37378;DHT22;23248;48.120;14.854;2022-12-20T03:34:27;-1.10;99.90
37378;DHT22;23248;48.120;14.854;2022-12-20T03:36:52;-1.10;99.90
37378;DHT22;23248;48.120;14.854;2022-12-20T03:39:18;-1.10;99.90
37378;DHT22;23248;48.120;14.854;2022-12-20T03:41:43;-1.10;99.90
37378;DHT22;23248;48.120;14.854;2022-12-20T03:44:09;-1.10;99.90
37378;DHT22;23248;48.120;14.854;2022-12-20T03:46:35;-1.00;99.90
37378;DHT22;23248;48.120;14.854;2022-12-20T03:49:00;-1.00;99.90
37378;DHT22;23248;48.120;14.854;2022-12-20T03:51:26;-1.00;99.90
37378;DHT22;23248;48.120;14.854;2022-12-20T03:53:51;-1.00;99.90
37378;DHT22;23248;48.120;14.854;2022-12-20T03:56:17;-1.10;99.90
37378;DHT22;23248;48.120;14.854;2022-12-20T03:58:43;-1.10;99.90
37378;DHT22;23248;48.120;14.854;2022-12-20T04:01:22;-1.10;99.90
37378;DHT22;23248;48.120;14.854;2022-12-20T04:03:48;-1.00;99.90
37378;DHT22;23248;48.120;14.854;2022-12-20T04:06:13;-1.00;99.90
37378;DHT22;23248;48.120;14.854;2022-12-20T04:08:39;-1.00;99.90
37378;DHT22;23248;48.120;14.854;2022-12-20T04:11:05;-1.00;99.90
37378;DHT22;23248;48.120;14.854;2022-12-20T04:13:43;-1.10;99.90
37378;DHT22;23248;48.120;14.854;2022-12-20T04:16:09;-1.10;99.90
37378;DHT22;23248;48.120;14.854;2022-12-20T04:18:35;-1.10;99.90
37378;DHT22;23248;48.120;14.854;2022-12-20T04:21:01;-1.00;99.90
37378;DHT22;23248;48.120;14.854;2022-12-20T04:23:26;-1.00;99.90
37378;DHT22;23248;48.120;14.854;2022-12-20T04:25:52;-1.00;99.90
37378;DHT22;23248;48.120;14.854;2022-12-20T04:28:17;-1.00;99.90
37378;DHT22;23248;48.120;14.854;2022-12-20T04:30:43;-1.10;99.90
37378;DHT22;23248;48.120;14.854;2022-12-20T04:33:09;-1.10;99.90
37378;DHT22;23248;48.120;14.854;2022-12-20T04:35:35;-1.00;99.90
37378;DHT22;23248;48.120;14.854;2022-12-20T04:38:01;-1.00;99.90
37378;DHT22;23248;48.120;14.854;2022-12-20T04:40:26;-1.10;99.90
37378;DHT22;23248;48.120;14.854;2022-12-20T04:42:52;-1.10;99.90
37378;DHT22;23248;48.120;14.854;2022-12-20T04:45:17;-1.10;99.90
37378;DHT22;23248;48.120;14.854;2022-12-20T04:47:43;-1.10;99.90
37378;DHT22;23248;48.120;14.854;2022-12-20T04:50:08;-1.10;99.90
37378;DHT22;23248;48.120;14.854;2022-12-20T04:52:34;-1.10;99.90
37378;DHT22;23248;48.120;14.854;2022-12-20T04:55:18;-1.10;99.90
37378;DHT22;23248;48.120;14.854;2022-12-20T04:57:43;-1.10;99.90
37378;DHT22;23248;48.120;14.854;2022-12-20T05:00:09;-1.10;99.90
37378;DHT22;23248;48.120;14.854;2022-12-20T05:02:35;-1.10;99.90
37378;DHT22;23248;48.120;14.854;2022-12-20T05:05:00;-1.10;99.90
37378;DHT22;23248;48.120;14.854;2022-12-20T05:07:26;-1.10;99.90
37378;DHT22;23248;48.120;14.854;2022-12-20T05:09:52;-1.10;99.90
37378;DHT22;23248;48.120;14.854;2022-12-20T05:12:17;-1.20;99.90
37378;DHT22;23248;48.120;14.854;2022-12-20T05:14:43;-1.10;99.90
37378;DHT22;23248;48.120;14.854;2022-12-20T05:17:08;-1.10;99.90
37378;DHT22;23248;48.120;14.854;2022-12-20T05:19:34;-1.10;99.90
37378;DHT22;23248;48.120;14.854;2022-12-20T05:21:59;-1.10;99.90
37378;DHT22;23248;48.120;14.854;2022-12-20T05:24:43;-1.10;99.90
37378;DHT22;23248;48.120;14.854;2022-12-20T05:27:27;-1.10;99.90
37378;DHT22;23248;48.120;14.854;2022-12-20T05:29:53;-1.10;99.90
37378;DHT22;23248;48.120;14.854;2022-12-20T05:32:18;-1.10;99.90
37378;DHT22;23248;48.120;14.854;2022-12-20T05:34:44;-1.00;99.90
37378;DHT22;23248;48.120;14.854;2022-12-20T05:37:09;-1.00;99.90
37378;DHT22;23248;48.120;14.854;2022-12-20T05:39:35;-1.00;99.90
37378;DHT22;23248;48.120;14.854;2022-12-20T05:42:00;-1.10;99.90
37378;DHT22;23248;48.120;14.854;2022-12-20T05:44:26;-1.10;99.90
37378;DHT22;23248;48.120;14.854;2022-12-20T05:46:52;-1.10;99.90
37378;DHT22;23248;48.120;14.854;2022-12-20T05:49:17;-1.10;99.90
37378;DHT22;23248;48.120;14.854;2022-12-20T05:51:43;-1.00;99.90
37378;DHT22;23248;48.120;14.854;2022-12-20T05:54:08;-1.10;99.90
37378;DHT22;23248;48.120;14.854;2022-12-20T05:56:34;-1.10;99.90
37378;DHT22;23248;48.120;14.854;2022-12-20T05:59:00;-1.10;99.90
37378;DHT22;23248;48.120;14.854;2022-12-20T06:01:26;-1.10;99.90
37378;DHT22;23248;48.120;14.854;2022-12-20T06:03:51;-1.10;99.90
37378;DHT22;23248;48.120;14.854;2022-12-20T06:06:17;-1.10;99.90
37378;DHT22;23248;48.120;14.854;2022-12-20T06:08:42;-1.10;99.90
37378;DHT22;23248;48.120;14.854;2022-12-20T06:11:08;-1.10;99.90
37378;DHT22;23248;48.120;14.854;2022-12-20T06:13:33;-1.10;99.90
37378;DHT22;23248;48.120;14.854;2022-12-20T06:15:59;-1.10;99.90
37378;DHT22;23248;48.120;14.854;2022-12-20T06:18:25;-1.10;99.90
37378;DHT22;23248;48.120;14.854;2022-12-20T06:20:51;-1.10;99.90
37378;DHT22;23248;48.120;14.854;2022-12-20T06:23:16;-1.10;99.90
37378;DHT22;23248;48.120;14.854;2022-12-20T06:25:42;-1.10;99.90
37378;DHT22;23248;48.120;14.854;2022-12-20T06:28:09;-1.10;99.90
37378;DHT22;23248;48.120;14.854;2022-12-20T06:30:35;-1.10;99.90
37378;DHT22;23248;48.120;14.854;2022-12-20T06:33:00;-1.10;99.90
37378;DHT22;23248;48.120;14.854;2022-12-20T06:35:26;-1.10;99.90
37378;DHT22;23248;48.120;14.854;2022-12-20T06:37:52;-1.20;99.90
37378;DHT22;23248;48.120;14.854;2022-12-20T06:40:17;-1.10;99.90
37378;DHT22;23248;48.120;14.854;2022-12-20T06:42:43;-1.10;99.90
37378;DHT22;23248;48.120;14.854;2022-12-20T06:45:09;-1.00;99.90
37378;DHT22;23248;48.120;14.854;2022-12-20T06:47:34;-1.00;99.90
37378;DHT22;23248;48.120;14.854;2022-12-20T06:50:00;-1.00;99.90
37378;DHT22;23248;48.120;14.854;2022-12-20T06:52:26;-1.10;99.90
37378;DHT22;23248;48.120;14.854;2022-12-20T06:54:51;-1.00;99.90
37378;DHT22;23248;48.120;14.854;2022-12-20T06:57:17;-1.00;99.90
37378;DHT22;23248;48.120;14.854;2022-12-20T06:59:43;-1.10;99.90
37378;DHT22;23248;48.120;14.854;2022-12-20T07:02:09;-1.00;99.90
37378;DHT22;23248;48.120;14.854;2022-12-20T07:04:35;-1.10;99.90
37378;DHT22;23248;48.120;14.854;2022-12-20T07:07:02;-1.10;99.90
37378;DHT22;23248;48.120;14.854;2022-12-20T07:09:28;-1.00;99.90
37378;DHT22;23248;48.120;14.854;2022-12-20T07:11:54;-1.00;99.90
37378;DHT22;23248;48.120;14.854;2022-12-20T07:14:20;-1.00;99.90
37378;DHT22;23248;48.120;14.854;2022-12-20T07:16:46;-1.00;99.90
37378;DHT22;23248;48.120;14.854;2022-12-20T07:19:12;-1.00;99.90
37378;DHT22;23248;48.120;14.854;2022-12-20T07:21:38;-1.00;99.90
37378;DHT22;23248;48.120;14.854;2022-12-20T07:24:04;-1.00;99.90
37378;DHT22;23248;48.120;14.854;2022-12-20T07:26:30;-1.00;99.90
37378;DHT22;23248;48.120;14.854;2022-12-20T07:28:55;-1.00;99.90
37378;DHT22;23248;48.120;14.854;2022-12-20T07:31:21;-0.90;99.90
37378;DHT22;23248;48.120;14.854;2022-12-20T07:33:47;-1.00;99.90
37378;DHT22;23248;48.120;14.854;2022-12-20T07:36:12;-0.90;99.90
37378;DHT22;23248;48.120;14.854;2022-12-20T07:38:38;-0.90;99.90
37378;DHT22;23248;48.120;14.854;2022-12-20T07:41:13;-0.90;99.90
37378;DHT22;23248;48.120;14.854;2022-12-20T07:43:39;-0.90;99.90
37378;DHT22;23248;48.120;14.854;2022-12-20T07:46:05;-0.90;99.90
37378;DHT22;23248;48.120;14.854;2022-12-20T07:48:31;-0.90;99.90
37378;DHT22;23248;48.120;14.854;2022-12-20T07:50:58;-0.90;99.90
37378;DHT22;23248;48.120;14.854;2022-12-20T07:53:25;-0.90;99.90
37378;DHT22;23248;48.120;14.854;2022-12-20T07:55:51;-0.80;99.90
37378;DHT22;23248;48.120;14.854;2022-12-20T07:58:18;-0.80;99.90
37378;DHT22;23248;48.120;14.854;2022-12-20T08:00:44;-0.80;99.90
37378;DHT22;23248;48.120;14.854;2022-12-20T08:03:14;-0.80;99.90
37378;DHT22;23248;48.120;14.854;2022-12-20T08:05:42;-0.90;99.90
37378;DHT22;23248;48.120;14.854;2022-12-20T08:08:10;-0.90;99.90
37378;DHT22;23248;48.120;14.854;2022-12-20T08:10:36;-0.80;99.90
37378;DHT22;23248;48.120;14.854;2022-12-20T08:13:02;-0.80;99.90
37378;DHT22;23248;48.120;14.854;2022-12-20T08:15:28;-0.80;99.90
37378;DHT22;23248;48.120;14.854;2022-12-20T08:17:54;-0.80;99.90
37378;DHT22;23248;48.120;14.854;2022-12-20T08:20:20;-0.70;99.90
37378;DHT22;23248;48.120;14.854;2022-12-20T08:22:45;-0.80;99.90
37378;DHT22;23248;48.120;14.854;2022-12-20T08:25:11;-0.80;99.90
37378;DHT22;23248;48.120;14.854;2022-12-20T08:27:37;-0.80;99.90
37378;DHT22;23248;48.120;14.854;2022-12-20T08:30:03;-0.80;99.90
37378;DHT22;23248;48.120;14.854;2022-12-20T08:32:29;-0.80;99.90
37378;DHT22;23248;48.120;14.854;2022-12-20T08:34:54;-0.70;99.90
37378;DHT22;23248;48.120;14.854;2022-12-20T08:37:20;-0.70;99.90
37378;DHT22;23248;48.120;14.854;2022-12-20T08:39:45;-0.70;99.90
37378;DHT22;23248;48.120;14.854;2022-12-20T08:42:12;-0.70;99.90
37378;DHT22;23248;48.120;14.854;2022-12-20T08:44:38;-0.70;99.90
37378;DHT22;23248;48.120;14.854;2022-12-20T08:47:03;-0.60;99.90
37378;DHT22;23248;48.120;14.854;2022-12-20T08:49:29;-0.60;99.90
37378;DHT22;23248;48.120;14.854;2022-12-20T08:51:55;-0.50;99.90
37378;DHT22;23248;48.120;14.854;2022-12-20T08:54:20;-0.50;99.90
37378;DHT22;23248;48.120;14.854;2022-12-20T08:56:46;-0.40;99.90
37378;DHT22;23248;48.120;14.854;2022-12-20T08:59:12;-0.40;99.90
37378;DHT22;23248;48.120;14.854;2022-12-20T09:01:37;-0.40;99.90
37378;DHT22;23248;48.120;14.854;2022-12-20T09:04:03;-0.30;99.90
37378;DHT22;23248;48.120;14.854;2022-12-20T09:06:29;-0.30;99.90
37378;DHT22;23248;48.120;14.854;2022-12-20T09:08:54;-0.30;99.90
37378;DHT22;23248;48.120;14.854;2022-12-20T09:11:21;-0.20;99.90
37378;DHT22;23248;48.120;14.854;2022-12-20T09:13:48;-0.20;99.90
37378;DHT22;23248;48.120;14.854;2022-12-20T09:16:14;-0.10;99.90
37378;DHT22;23248;48.120;14.854;2022-12-20T09:18:40;-0.10;99.90
37378;DHT22;23248;48.120;14.854;2022-12-20T09:21:07;-0.10;99.90
37378;DHT22;23248;48.120;14.854;2022-12-20T09:23:33;-0.10;99.90
37378;DHT22;23248;48.120;14.854;2022-12-20T09:26:06;-0.20;99.90
37378;DHT22;23248;48.120;14.854;2022-12-20T09:28:33;-0.30;99.90
37378;DHT22;23248;48.120;14.854;2022-12-20T09:31:02;-0.30;99.90
37378;DHT22;23248;48.120;14.854;2022-12-20T09:33:28;-0.20;99.90
37378;DHT22;23248;48.120;14.854;2022-12-20T09:35:55;-0.20;99.90
37378;DHT22;23248;48.120;14.854;2022-12-20T09:38:20;-0.10;99.90
37378;DHT22;23248;48.120;14.854;2022-12-20T09:40:46;-0.10;99.90
37378;DHT22;23248;48.120;14.854;2022-12-20T09:43:13;-0.10;99.90
37378;DHT22;23248;48.120;14.854;2022-12-20T09:45:40;-0.20;99.90
37378;DHT22;23248;48.120;14.854;2022-12-20T09:48:09;-0.20;99.90
37378;DHT22;23248;48.120;14.854;2022-12-20T09:55:46;-0.30;99.90
37378;DHT22;23248;48.120;14.854;2022-12-20T09:58:27;-0.30;99.90
37378;DHT22;23248;48.120;14.854;2022-12-20T10:00:55;-0.20;99.90
37378;DHT22;23248;48.120;14.854;2022-12-20T10:03:24;-0.20;99.90
37378;DHT22;23248;48.120;14.854;2022-12-20T10:05:51;-0.30;99.90
37378;DHT22;23248;48.120;14.854;2022-12-20T10:10:50;-0.30;99.90
37378;DHT22;23248;48.120;14.854;2022-12-20T10:13:22;-0.40;99.90
37378;DHT22;23248;48.120;14.854;2022-12-20T10:23:36;-0.30;99.90
37378;DHT22;23248;48.120;14.854;2022-12-20T10:26:07;-0.30;99.90
37378;DHT22;23248;48.120;14.854;2022-12-20T10:28:33;-0.20;99.90
37378;DHT22;23248;48.120;14.854;2022-12-20T10:31:04;-0.20;99.90
37378;DHT22;23248;48.120;14.854;2022-12-20T10:33:31;-0.20;99.90
37378;DHT22;23248;48.120;14.854;2022-12-20T10:38:42;-0.10;99.90
37378;DHT22;23248;48.120;14.854;2022-12-20T10:41:10;0.00;99.90
37378;DHT22;23248;48.120;14.854;2022-12-20T10:43:41;-0.10;99.90
37378;DHT22;23248;48.120;14.854;2022-12-20T10:46:07;0.00;99.90
37378;DHT22;23248;48.120;14.854;2022-12-20T10:53:29;-0.10;99.90
37378;DHT22;23248;48.120;14.854;2022-12-20T10:56:17;-0.10;99.90
37378;DHT22;23248;48.120;14.854;2022-12-20T10:58:41;0.00;99.90
37378;DHT22;23248;48.120;14.854;2022-12-20T11:03:42;0.00;99.90
37378;DHT22;23248;48.120;14.854;2022-12-20T11:06:14;0.00;99.90
37378;DHT22;23248;48.120;14.854;2022-12-20T11:08:40;0.00;99.90
37378;DHT22;23248;48.120;14.854;2022-12-20T11:11:16;0.10;99.90
37378;DHT22;23248;48.120;14.854;2022-12-20T11:13:43;0.10;99.90
37378;DHT22;23248;48.120;14.854;2022-12-20T11:16:28;0.10;99.90
37378;DHT22;23248;48.120;14.854;2022-12-20T11:26:54;0.00;99.90
37378;DHT22;23248;48.120;14.854;2022-12-20T11:37:32;0.10;99.90
37378;DHT22;23248;48.120;14.854;2022-12-20T11:45:03;0.30;99.90
37378;DHT22;23248;48.120;14.854;2022-12-20T11:52:55;0.20;99.90
37378;DHT22;23248;48.120;14.854;2022-12-20T11:55:44;0.20;99.90
37378;DHT22;23248;48.120;14.854;2022-12-20T11:58:23;0.20;99.90
37378;DHT22;23248;48.120;14.854;2022-12-20T12:00:55;0.20;99.90
37378;DHT22;23248;48.120;14.854;2022-12-20T12:05:55;0.20;99.90
37378;DHT22;23248;48.120;14.854;2022-12-20T12:08:58;0.20;99.90
37378;DHT22;23248;48.120;14.854;2022-12-20T12:11:19;0.20;99.90
37378;DHT22;23248;48.120;14.854;2022-12-20T12:13:46;0.10;99.90
37378;DHT22;23248;48.120;14.854;2022-12-20T12:16:16;0.10;99.90
37378;DHT22;23248;48.120;14.854;2022-12-20T12:18:42;0.10;99.90
37378;DHT22;23248;48.120;14.854;2022-12-20T12:21:15;0.10;99.90
37378;DHT22;23248;48.120;14.854;2022-12-20T12:26:11;0.10;99.90
37378;DHT22;23248;48.120;14.854;2022-12-20T12:28:36;0.10;99.90
37378;DHT22;23248;48.120;14.854;2022-12-20T12:31:03;0.10;99.90
37378;DHT22;23248;48.120;14.854;2022-12-20T12:33:40;0.10;99.90
37378;DHT22;23248;48.120;14.854;2022-12-20T12:36:23;0.10;99.90
37378;DHT22;23248;48.120;14.854;2022-12-20T12:46:43;0.10;99.90
37378;DHT22;23248;48.120;14.854;2022-12-20T12:49:10;0.10;99.90
37378;DHT22;23248;48.120;14.854;2022-12-20T12:51:37;0.10;99.90
37378;DHT22;23248;48.120;14.854;2022-12-20T12:54:13;0.10;99.90
37378;DHT22;23248;48.120;14.854;2022-12-20T12:56:45;0.10;99.90
37378;DHT22;23248;48.120;14.854;2022-12-20T13:11:50;0.30;99.90
37378;DHT22;23248;48.120;14.854;2022-12-20T13:16:42;0.40;99.90
37378;DHT22;23248;48.120;14.854;2022-12-20T13:19:19;0.30;99.90
37378;DHT22;23248;48.120;14.854;2022-12-20T13:22:14;0.30;99.90
37378;DHT22;23248;48.120;14.854;2022-12-20T13:27:38;0.30;99.90
37378;DHT22;23248;48.120;14.854;2022-12-20T13:43:06;0.30;99.90
37378;DHT22;23248;48.120;14.854;2022-12-20T13:45:34;0.30;99.90
37378;DHT22;23248;48.120;14.854;2022-12-20T13:48:00;0.20;99.90
37378;DHT22;23248;48.120;14.854;2022-12-20T13:52:56;0.30;99.90
37378;DHT22;23248;48.120;14.854;2022-12-20T13:55:33;0.30;99.90
37378;DHT22;23248;48.120;14.854;2022-12-20T13:58:09;0.30;99.90
37378;DHT22;23248;48.120;14.854;2022-12-20T14:00:35;0.20;99.90
37378;DHT22;23248;48.120;14.854;2022-12-20T14:03:02;0.20;99.90
37378;DHT22;23248;48.120;14.854;2022-12-20T14:05:32;0.10;99.90
37378;DHT22;23248;48.120;14.854;2022-12-20T14:08:02;0.10;99.90
37378;DHT22;23248;48.120;14.854;2022-12-20T14:10:29;0.10;99.90
37378;DHT22;23248;48.120;14.854;2022-12-20T14:12:55;0.10;99.90
37378;DHT22;23248;48.120;14.854;2022-12-20T14:15:22;0.10;99.90
37378;DHT22;23248;48.120;14.854;2022-12-20T14:17:48;0.10;99.90
37378;DHT22;23248;48.120;14.854;2022-12-20T14:20:14;0.10;99.90
37378;DHT22;23248;48.120;14.854;2022-12-20T14:22:50;0.10;99.90
37378;DHT22;23248;48.120;14.854;2022-12-20T14:25:19;0.10;99.90
37378;DHT22;23248;48.120;14.854;2022-12-20T14:27:47;0.10;99.90
37378;DHT22;23248;48.120;14.854;2022-12-20T14:30:26;0.00;99.90
37378;DHT22;23248;48.120;14.854;2022-12-20T14:32:53;0.00;99.90
37378;DHT22;23248;48.120;14.854;2022-12-20T14:35:19;0.00;99.90
37378;DHT22;23248;48.120;14.854;2022-12-20T14:37:51;0.00;99.90
37378;DHT22;23248;48.120;14.854;2022-12-20T14:40:17;0.00;99.90
37378;DHT22;23248;48.120;14.854;2022-12-20T14:42:43;0.00;99.90
37378;DHT22;23248;48.120;14.854;2022-12-20T14:47:36;0.00;99.90
37378;DHT22;23248;48.120;14.854;2022-12-20T14:50:49;0.00;99.90
37378;DHT22;23248;48.120;14.854;2022-12-20T14:52:51;0.00;99.90
37378;DHT22;23248;48.120;14.854;2022-12-20T14:55:18;0.00;99.90
37378;DHT22;23248;48.120;14.854;2022-12-20T14:57:48;0.00;99.90
37378;DHT22;23248;48.120;14.854;2022-12-20T15:00:23;0.00;99.90
37378;DHT22;23248;48.120;14.854;2022-12-20T15:10:40;-0.20;99.90
37378;DHT22;23248;48.120;14.854;2022-12-20T15:13:13;-0.20;99.90
37378;DHT22;23248;48.120;14.854;2022-12-20T15:15:39;-0.20;99.90
37378;DHT22;23248;48.120;14.854;2022-12-20T15:18:15;-0.20;99.90
37378;DHT22;23248;48.120;14.854;2022-12-20T15:20:42;-0.30;99.90
37378;DHT22;23248;48.120;14.854;2022-12-20T15:23:14;-0.30;99.90
37378;DHT22;23248;48.120;14.854;2022-12-20T15:25:40;-0.30;99.90
37378;DHT22;23248;48.120;14.854;2022-12-20T15:28:27;-0.30;99.90
37378;DHT22;23248;48.120;14.854;2022-12-20T15:30:52;-0.20;99.90
37378;DHT22;23248;48.120;14.854;2022-12-20T15:33:19;-0.30;99.90
37378;DHT22;23248;48.120;14.854;2022-12-20T15:35:46;-0.20;99.90
37378;DHT22;23248;48.120;14.854;2022-12-20T15:38:15;-0.30;99.90
37378;DHT22;23248;48.120;14.854;2022-12-20T15:40:42;-0.30;99.90
37378;DHT22;23248;48.120;14.854;2022-12-20T15:43:10;-0.30;99.90
37378;DHT22;23248;48.120;14.854;2022-12-20T15:45:36;-0.30;99.90
37378;DHT22;23248;48.120;14.854;2022-12-20T15:48:02;-0.30;99.90
37378;DHT22;23248;48.120;14.854;2022-12-20T15:50:27;-0.30;99.90
37378;DHT22;23248;48.120;14.854;2022-12-20T15:52:53;-0.30;99.90
37378;DHT22;23248;48.120;14.854;2022-12-20T15:55:18;-0.30;99.90
37378;DHT22;23248;48.120;14.854;2022-12-20T15:57:44;-0.30;99.90
37378;DHT22;23248;48.120;14.854;2022-12-20T16:00:10;-0.30;99.90
37378;DHT22;23248;48.120;14.854;2022-12-20T16:02:36;-0.30;99.90
37378;DHT22;23248;48.120;14.854;2022-12-20T16:05:02;-0.30;99.90
37378;DHT22;23248;48.120;14.854;2022-12-20T16:07:27;-0.30;99.90
37378;DHT22;23248;48.120;14.854;2022-12-20T16:09:55;-0.30;99.90
37378;DHT22;23248;48.120;14.854;2022-12-20T16:12:22;-0.30;99.90
37378;DHT22;23248;48.120;14.854;2022-12-20T16:14:49;-0.30;99.90
37378;DHT22;23248;48.120;14.854;2022-12-20T16:17:15;-0.40;99.90
37378;DHT22;23248;48.120;14.854;2022-12-20T16:19:42;-0.30;99.90
37378;DHT22;23248;48.120;14.854;2022-12-20T16:22:17;-0.30;99.90
37378;DHT22;23248;48.120;14.854;2022-12-20T16:24:43;-0.30;99.90
37378;DHT22;23248;48.120;14.854;2022-12-20T16:27:09;-0.30;99.90
37378;DHT22;23248;48.120;14.854;2022-12-20T16:29:35;-0.30;99.90
37378;DHT22;23248;48.120;14.854;2022-12-20T16:32:00;-0.30;99.90
37378;DHT22;23248;48.120;14.854;2022-12-20T16:34:26;-0.40;99.90
37378;DHT22;23248;48.120;14.854;2022-12-20T16:36:51;-0.40;99.90
37378;DHT22;23248;48.120;14.854;2022-12-20T16:39:17;-0.40;99.90
37378;DHT22;23248;48.120;14.854;2022-12-20T16:41:43;-0.40;99.90
37378;DHT22;23248;48.120;14.854;2022-12-20T16:44:12;-0.40;99.90
37378;DHT22;23248;48.120;14.854;2022-12-20T16:46:38;-0.40;99.90
37378;DHT22;23248;48.120;14.854;2022-12-20T16:49:04;-0.40;99.90
37378;DHT22;23248;48.120;14.854;2022-12-20T16:51:33;-0.40;99.90
37378;DHT22;23248;48.120;14.854;2022-12-20T16:54:13;-0.40;99.90
37378;DHT22;23248;48.120;14.854;2022-12-20T16:56:39;-0.40;99.90
37378;DHT22;23248;48.120;14.854;2022-12-20T16:59:05;-0.40;99.90
37378;DHT22;23248;48.120;14.854;2022-12-20T17:01:34;-0.40;99.90
37378;DHT22;23248;48.120;14.854;2022-12-20T17:04:00;-0.50;99.90
37378;DHT22;23248;48.120;14.854;2022-12-20T17:06:26;-0.50;99.90
37378;DHT22;23248;48.120;14.854;2022-12-20T17:08:52;-0.50;99.90
37378;DHT22;23248;48.120;14.854;2022-12-20T17:11:19;-0.50;99.90
37378;DHT22;23248;48.120;14.854;2022-12-20T17:13:46;-0.50;99.90
37378;DHT22;23248;48.120;14.854;2022-12-20T17:16:12;-0.50;99.90
37378;DHT22;23248;48.120;14.854;2022-12-20T17:18:39;-0.50;99.90
37378;DHT22;23248;48.120;14.854;2022-12-20T17:21:18;-0.50;99.90
37378;DHT22;23248;48.120;14.854;2022-12-20T17:23:48;-0.50;99.90
37378;DHT22;23248;48.120;14.854;2022-12-20T17:26:15;-0.50;99.90
37378;DHT22;23248;48.120;14.854;2022-12-20T17:28:41;-0.50;99.90